Bf Caroda — V2CV5 — position and weather

sailwx.info

Track history (hours):
 
Tides and Currents Weather Stations Pressure Air Temp Water Temp Dewpoint Dewpoint Depression Visibility Wind Speed Wind Dir Waves Ship Positions

Bf Caroda

Last reported at 2017-Jan-23 16:34 UTC. Time now 2017-Jan-23 17:00 UTC.
Position N 42°59' E 004°56'.

Length 134 m; draft 8 m.

Type: Cargo ship. MMSI: 304678000.

Date/timePositionNaut miles runAvg speedWind from/ knotsBaromVisibWave heightAir tempDewpointWater temp
2017-Jan-23 16:34N 42°59' E 004°56'1513.5
2017-Jan-23 15:26N 43°11' E 005°09'1212.2
2017-Jan-23 14:28N 43°20' E 005°18'1 0.0
2017-Jan-22 07:31N 43°20' E 005°16'9 9.4
2017-Jan-22 06:33N 43°12' E 005°10'2110.1
2017-Jan-22 04:29N 43°02' E 004°45'9 9.7
2017-Jan-22 03:33N 42°57' E 004°35'10 9.6
2017-Jan-22 02:33N 42°51' E 004°25'12 9.2
2017-Jan-22 01:14N 42°43' E 004°13'16 9.1
2017-Jan-21 23:32N 42°32' E 003°57'98 8.6
2017-Jan-21 12:09N 41°19' E 002°29'13 0.4
2017-Jan-20 01:31N 41°13' E 002°14'5 5.3
2017-Jan-20 00:33N 41°10' E 002°08'9 8.6
2017-Jan-19 23:32N 41°03' E 002°03'9 9.2
2017-Jan-19 22:33N 40°54' E 001°58'9 9.0
2017-Jan-19 21:33N 40°46' E 001°53'9 8.9
2017-Jan-19 20:33N 40°38' E 001°49'9 8.8
2017-Jan-19 19:33N 40°29' E 001°45'8 8.2
2017-Jan-19 18:33N 40°22' E 001°42'8 7.6
2017-Jan-19 17:33N 40°15' E 001°38'7 7.5
2017-Jan-19 16:33N 40°08' E 001°33'8 8.3
2017-Jan-19 15:33N 40°01' E 001°27'10 9.8
2017-Jan-19 14:33N 39°52' E 001°22'1010.4
2017-Jan-19 13:33N 39°42' E 001°17'  
Track history (hours):
 
Tides and Currents Weather Stations Pressure Air Temp Water Temp Dewpoint Dewpoint Depression Visibility Wind Speed Wind Dir Waves Ship Positions

Bf Caroda

Last reported at 2017-Jan-23 16:34 UTC. Time now 2017-Jan-23 17:00 UTC.
Position N 42°59' E 004°56'.

Length 134 m; draft 8 m.

Type: Cargo ship. MMSI: 304678000.

Date/timePositionNaut miles runAvg speedWind from/ knotsBaromVisibWave heightAir tempDewpointWater temp
2017-Jan-23 16:34N 42°59' E 004°56'1513.5
2017-Jan-23 15:26N 43°11' E 005°09'1212.2
2017-Jan-23 14:28N 43°20' E 005°18'1 0.0
2017-Jan-22 07:31N 43°20' E 005°16'9 9.4
2017-Jan-22 06:33N 43°12' E 005°10'2110.1
2017-Jan-22 04:29N 43°02' E 004°45'9 9.7
2017-Jan-22 03:33N 42°57' E 004°35'10 9.6
2017-Jan-22 02:33N 42°51' E 004°25'12 9.2
2017-Jan-22 01:14N 42°43' E 004°13'16 9.1
2017-Jan-21 23:32N 42°32' E 003°57'98 8.6
2017-Jan-21 12:09N 41°19' E 002°29'13 0.4
2017-Jan-20 01:31N 41°13' E 002°14'5 5.3
2017-Jan-20 00:33N 41°10' E 002°08'9 8.6
2017-Jan-19 23:32N 41°03' E 002°03'9 9.2
2017-Jan-19 22:33N 40°54' E 001°58'9 9.0
2017-Jan-19 21:33N 40°46' E 001°53'9 8.9
2017-Jan-19 20:33N 40°38' E 001°49'9 8.8
2017-Jan-19 19:33N 40°29' E 001°45'8 8.2
2017-Jan-19 18:33N 40°22' E 001°42'8 7.6
2017-Jan-19 17:33N 40°15' E 001°38'7 7.5
2017-Jan-19 16:33N 40°08' E 001°33'8 8.3
2017-Jan-19 15:33N 40°01' E 001°27'10 9.8
2017-Jan-19 14:33N 39°52' E 001°22'1010.4
2017-Jan-19 13:33N 39°42' E 001°17'  

Dump ship's entire track history